createdAt,value
2023-01-15T00:02:13.051Z,6.73
2023-01-15T00:05:09.921Z,6.75
2023-01-15T00:08:06.696Z,6.82
2023-01-15T00:11:04.484Z,6.75
2023-01-15T00:14:01.360Z,6.83
2023-01-15T00:16:58.146Z,6.89
2023-01-15T00:19:54.947Z,6.93
2023-01-15T00:22:51.739Z,7.06
2023-01-15T00:26:07.026Z,6.96
2023-01-15T00:29:04.122Z,6.86
2023-01-15T00:32:03.203Z,7.03
2023-01-15T00:35:00.554Z,6.91
2023-01-15T00:37:57.323Z,7.08
2023-01-15T00:40:54.075Z,7.00
2023-01-15T00:43:51.013Z,7.00
2023-01-15T00:46:48.339Z,6.94
2023-01-15T00:49:45.289Z,7.00
2023-01-15T00:52:42.300Z,7.02
2023-01-15T00:55:39.092Z,7.14
2023-01-15T00:58:35.855Z,7.09
2023-01-15T01:01:32.916Z,7.11
2023-01-15T01:04:29.830Z,7.06
2023-01-15T01:07:26.641Z,6.94
2023-01-15T01:10:23.517Z,7.08
2023-01-15T01:13:20.279Z,7.04
2023-01-15T01:16:21.941Z,7.05
2023-01-15T01:19:21.434Z,7.12
2023-01-15T01:22:18.186Z,7.28
2023-01-15T01:25:15.067Z,7.34
2023-01-15T01:28:11.868Z,7.12
2023-01-15T01:31:09.586Z,7.21
2023-01-15T01:34:06.869Z,7.17
2023-01-15T01:37:03.689Z,7.36
2023-01-15T01:40:00.448Z,7.31
2023-01-15T01:42:57.224Z,7.35
2023-01-15T01:45:54.089Z,7.41
2023-01-15T01:48:54.095Z,7.29
2023-01-15T01:51:57.567Z,7.18
2023-01-15T01:54:54.420Z,7.28
2023-01-15T01:57:54.716Z,7.43
2023-01-15T02:00:52.569Z,7.36
2023-01-15T02:03:50.008Z,7.28
2023-01-15T02:06:46.801Z,7.32
2023-01-15T02:09:43.645Z,7.52
2023-01-15T02:12:42.441Z,7.41
2023-01-15T02:15:47.179Z,7.39
2023-01-15T02:18:50.211Z,7.34
2023-01-15T02:22:00.229Z,7.36
2023-01-15T02:25:19.526Z,7.38
2023-01-15T02:28:37.678Z,7.52
2023-01-15T02:31:37.618Z,7.52
2023-01-15T02:34:36.518Z,7.29
2023-01-15T02:37:37.151Z,7.49
2023-01-15T02:40:35.443Z,7.50
2023-01-15T02:43:35.401Z,7.50
2023-01-15T02:46:36.005Z,7.56
2023-01-15T02:49:33.855Z,7.69
2023-01-15T02:52:35.274Z,7.55
2023-01-15T02:55:35.098Z,7.38
2023-01-15T02:58:36.413Z,7.55
2023-01-15T03:01:41.721Z,7.55
2023-01-15T03:04:43.812Z,7.37
2023-01-15T03:07:50.742Z,7.51
2023-01-15T03:10:56.564Z,7.66
2023-01-15T03:14:14.425Z,7.56
2023-01-15T03:17:24.184Z,7.62
2023-01-15T03:20:25.233Z,7.61
2023-01-15T03:23:23.785Z,7.67
2023-01-15T03:26:20.557Z,7.56
2023-01-15T03:29:17.778Z,7.75
2023-01-15T03:32:16.290Z,7.80
2023-01-15T03:35:46.665Z,7.82
2023-01-15T03:38:46.915Z,7.66
2023-01-15T03:41:59.939Z,7.64
2023-01-15T03:45:08.893Z,7.76
2023-01-15T03:48:16.176Z,7.75
2023-01-15T03:51:20.081Z,7.69
2023-01-15T03:54:26.885Z,7.17
2023-01-15T03:57:35.240Z,6.70
2023-01-15T04:00:56.608Z,6.56
2023-01-15T04:03:54.266Z,6.56
2023-01-15T04:06:51.347Z,6.46
2023-01-15T04:09:48.381Z,6.35
2023-01-15T04:12:45.147Z,6.23
2023-01-15T04:15:41.931Z,6.37
2023-01-15T04:18:38.681Z,6.41
2023-01-15T04:21:35.477Z,6.25
2023-01-15T04:24:32.262Z,6.28
2023-01-15T04:27:29.078Z,6.34
2023-01-15T04:30:25.845Z,6.01
2023-01-15T04:33:22.601Z,5.93
2023-01-15T04:36:19.630Z,5.83
2023-01-15T04:39:16.402Z,5.60
2023-01-15T04:42:32.652Z,5.60
2023-01-15T04:45:29.433Z,5.57
2023-01-15T04:48:26.380Z,5.35
2023-01-15T04:51:23.170Z,5.43
2023-01-15T04:54:20.301Z,5.14
2023-01-15T04:57:17.168Z,5.17
2023-01-15T05:00:14.102Z,5.18
2023-01-15T05:03:12.212Z,5.03
2023-01-15T05:06:09.425Z,5.05
2023-01-15T05:09:06.399Z,4.82
2023-01-15T05:12:03.268Z,4.88
2023-01-15T05:15:00.161Z,4.96
2023-01-15T05:17:57.013Z,4.95
2023-01-15T05:20:53.813Z,4.76
2023-01-15T05:23:52.303Z,4.69
2023-01-15T05:26:49.398Z,4.76
2023-01-15T05:29:46.220Z,4.65
2023-01-15T05:32:42.955Z,4.60
2023-01-15T05:35:39.720Z,4.69
2023-01-15T05:38:37.071Z,4.69
2023-01-15T05:41:49.088Z,4.70
2023-01-15T05:44:45.915Z,4.68
2023-01-15T05:47:42.667Z,4.45
2023-01-15T05:50:39.400Z,4.57
2023-01-15T05:53:36.145Z,4.68
2023-01-15T05:56:36.272Z,4.47
2023-01-15T05:59:33.783Z,4.36
2023-01-15T06:02:35.828Z,4.40
2023-01-15T06:05:32.589Z,4.26
2023-01-15T06:08:29.532Z,4.13
2023-01-15T06:11:26.348Z,4.01
2023-01-15T06:14:23.140Z,3.87
2023-01-15T06:17:20.444Z,3.95
2023-01-15T06:20:17.598Z,3.82
2023-01-15T06:23:14.424Z,3.71
2023-01-15T06:26:16.932Z,3.65
2023-01-15T06:29:17.560Z,3.41
2023-01-15T06:32:14.392Z,3.36
2023-01-15T06:35:12.353Z,3.32
2023-01-15T06:38:09.086Z,3.36
2023-01-15T06:41:30.002Z,3.08
2023-01-15T06:44:46.835Z,2.90
2023-01-15T06:47:43.629Z,3.08
2023-01-15T06:50:40.378Z,2.81
2023-01-15T06:53:37.152Z,2.84
2023-01-15T06:56:33.902Z,3.06
2023-01-15T06:59:31.119Z,2.86
2023-01-15T07:02:27.889Z,2.72
2023-01-15T07:05:24.645Z,2.95
2023-01-15T07:08:21.373Z,2.64
2023-01-15T07:11:18.112Z,2.60
2023-01-15T07:14:28.009Z,2.74
2023-01-15T07:17:24.726Z,2.69
2023-01-15T07:20:21.979Z,2.90
2023-01-15T07:23:18.721Z,2.63
2023-01-15T07:26:15.503Z,2.59
2023-01-15T07:29:12.394Z,2.55
2023-01-15T07:32:09.849Z,2.82
2023-01-15T07:35:06.710Z,2.72
2023-01-15T07:38:03.457Z,2.85
2023-01-15T07:41:19.376Z,2.62
2023-01-15T07:44:34.751Z,2.93
2023-01-15T07:47:50.176Z,2.85
2023-01-15T07:50:47.525Z,2.76
2023-01-15T07:53:44.265Z,2.75
2023-01-15T07:56:41.021Z,2.68
2023-01-15T07:59:37.873Z,2.36
2023-01-15T08:02:34.616Z,2.28
2023-01-15T08:05:31.363Z,2.06
2023-01-15T08:08:28.186Z,2.23
2023-01-15T08:11:43.650Z,2.13
2023-01-15T08:14:59.239Z,2.34
2023-01-15T08:17:56.024Z,2.30
2023-01-15T08:20:52.791Z,2.33
2023-01-15T08:23:51.033Z,2.47
2023-01-15T08:26:48.495Z,2.41
2023-01-15T08:29:45.323Z,2.56
2023-01-15T08:32:42.155Z,2.40
2023-01-15T08:35:38.910Z,2.67
2023-01-15T08:38:35.659Z,2.59
2023-01-15T08:41:32.399Z,2.25
2023-01-15T08:44:29.208Z,2.51
2023-01-15T08:47:25.967Z,2.18
2023-01-15T08:50:22.725Z,1.76
2023-01-15T08:53:19.788Z,2.06
2023-01-15T08:56:18.927Z,1.87
2023-01-15T08:59:15.684Z,2.02
2023-01-15T09:02:14.297Z,2.09
2023-01-15T09:05:11.071Z,1.77
2023-01-15T09:08:08.251Z,1.90
2023-01-15T09:11:06.134Z,1.87
2023-01-15T09:14:02.875Z,2.04
2023-01-15T09:16:59.745Z,2.13
2023-01-15T09:19:56.507Z,2.30
2023-01-15T09:22:53.263Z,2.08
2023-01-15T09:26:06.117Z,2.01
2023-01-15T09:29:04.207Z,1.88
2023-01-15T09:32:02.667Z,1.88
2023-01-15T09:34:59.589Z,1.75
2023-01-15T09:37:56.405Z,1.87
2023-01-15T09:40:59.489Z,2.08
2023-01-15T09:44:07.435Z,2.05
2023-01-15T09:47:34.579Z,1.82
2023-01-15T09:50:44.168Z,1.87
2023-01-15T09:54:07.622Z,1.82
2023-01-15T09:57:07.472Z,2.18
2023-01-15T10:00:06.200Z,2.36
2023-01-15T10:03:29.161Z,2.17
2023-01-15T10:06:29.020Z,2.08
2023-01-15T10:09:34.985Z,2.24
2023-01-15T10:12:35.316Z,2.32
2023-01-15T10:15:46.608Z,2.16
2023-01-15T10:18:43.556Z,2.44
2023-01-15T10:22:02.495Z,2.14
2023-01-15T10:25:01.550Z,2.20
2023-01-15T10:28:04.345Z,2.41
2023-01-15T10:31:12.486Z,2.27
2023-01-15T10:34:33.432Z,2.30
2023-01-15T10:37:45.876Z,2.33
2023-01-15T10:41:07.594Z,1.88
2023-01-15T10:44:30.351Z,2.11
2023-01-15T10:47:35.270Z,1.98
2023-01-15T10:50:32.571Z,2.20
2023-01-15T10:53:34.649Z,2.18
2023-01-15T10:56:35.833Z,2.08
2023-01-15T10:59:56.955Z,2.20
2023-01-15T11:03:15.046Z,2.03
2023-01-15T11:06:23.227Z,2.21
2023-01-15T11:09:30.892Z,2.11
2023-01-15T11:12:48.194Z,2.22
2023-01-15T11:16:05.599Z,2.14
2023-01-15T11:19:23.319Z,2.18
2023-01-15T11:22:20.444Z,2.12
2023-01-15T11:25:31.521Z,2.17
2023-01-15T11:28:43.287Z,2.08
2023-01-15T11:31:41.156Z,2.04
2023-01-15T11:34:40.295Z,2.16
2023-01-15T11:37:37.096Z,1.97
2023-01-15T11:40:34.481Z,1.86
2023-01-15T11:43:50.483Z,2.15
2023-01-15T11:47:05.804Z,1.75
2023-01-15T11:50:21.899Z,2.02
2023-01-15T11:53:29.328Z,1.83
2023-01-15T11:56:28.486Z,2.21
2023-01-15T11:59:25.350Z,2.02
2023-01-15T12:02:34.564Z,2.20
2023-01-15T12:05:34.310Z,2.03
2023-01-15T12:08:53.224Z,1.90
2023-01-15T12:12:02.684Z,1.95
2023-01-15T12:14:59.437Z,1.91
2023-01-15T12:18:07.068Z,1.68
2023-01-15T12:21:13.406Z,1.90
2023-01-15T12:24:51.631Z,2.13
2023-01-15T12:27:59.766Z,1.98
2023-01-15T12:31:16.449Z,2.15
2023-01-15T12:34:24.329Z,2.12
2023-01-15T12:37:26.175Z,1.98
2023-01-15T12:40:27.515Z,2.18
2023-01-15T12:43:45.716Z,2.18
2023-01-15T12:46:44.448Z,2.14
2023-01-15T12:49:47.422Z,2.46
2023-01-15T12:52:46.311Z,2.26
2023-01-15T12:56:07.229Z,2.38
2023-01-15T12:59:06.178Z,2.36
2023-01-15T13:02:29.770Z,2.25
2023-01-15T13:05:32.716Z,2.42
2023-01-15T13:08:46.295Z,2.27
2023-01-15T13:11:43.043Z,2.23
2023-01-15T13:14:40.015Z,2.30
2023-01-15T13:18:14.592Z,2.22
2023-01-15T13:21:16.227Z,2.47
2023-01-15T13:24:41.407Z,2.28
2023-01-15T13:27:47.563Z,2.39
2023-01-15T13:31:02.831Z,2.51
2023-01-15T13:34:04.773Z,2.21
2023-01-15T13:37:33.968Z,2.37
2023-01-15T13:40:34.860Z,2.50
2023-01-15T13:43:39.451Z,2.53
2023-01-15T13:46:36.221Z,2.56
2023-01-15T13:49:36.047Z,2.56
2023-01-15T13:52:37.084Z,2.61
2023-01-15T13:55:40.284Z,2.44
2023-01-15T13:58:51.698Z,2.50
2023-01-15T14:01:48.554Z,2.51
2023-01-15T14:04:45.418Z,2.41
2023-01-15T14:07:42.190Z,2.46
2023-01-15T14:10:39.472Z,2.33
2023-01-15T14:14:09.329Z,2.45
2023-01-15T14:17:30.787Z,2.39
2023-01-15T14:20:37.783Z,2.46
2023-01-15T14:23:43.380Z,2.61
2023-01-15T14:26:47.356Z,2.48
2023-01-15T14:30:03.262Z,2.48
2023-01-15T14:33:28.520Z,2.43
2023-01-15T14:36:30.516Z,2.47
2023-01-15T14:39:40.452Z,2.49
2023-01-15T14:42:58.960Z,2.31
2023-01-15T14:45:55.973Z,2.56
2023-01-15T14:48:52.833Z,2.51
2023-01-15T14:51:50.780Z,2.47
2023-01-15T14:54:47.981Z,2.42
2023-01-15T14:57:57.262Z,2.40
2023-01-15T15:01:07.308Z,2.35
2023-01-15T15:04:20.980Z,2.41
2023-01-15T15:07:27.635Z,2.35
2023-01-15T15:10:44.883Z,2.34
2023-01-15T15:13:46.621Z,2.49
2023-01-15T15:16:50.514Z,2.47
2023-01-15T15:19:55.335Z,2.33
2023-01-15T15:22:56.569Z,2.35
2023-01-15T15:26:05.547Z,2.45
2023-01-15T15:29:11.266Z,2.50
2023-01-15T15:32:12.664Z,2.44
2023-01-15T15:35:25.205Z,2.39
2023-01-15T15:38:23.691Z,2.44
2023-01-15T15:41:42.269Z,2.35
2023-01-15T15:45:18.372Z,2.40
2023-01-15T15:48:42.819Z,2.48
2023-01-15T15:51:50.372Z,2.40
2023-01-15T15:54:57.810Z,2.37
2023-01-15T15:57:59.521Z,2.34
2023-01-15T16:00:57.570Z,2.38
2023-01-15T16:03:55.039Z,2.33
2023-01-15T16:06:52.127Z,2.25
2023-01-15T16:09:51.599Z,2.25
2023-01-15T16:12:51.174Z,2.31
2023-01-15T16:15:50.323Z,2.22
2023-01-15T16:18:51.987Z,2.25
2023-01-15T16:21:49.859Z,2.38
2023-01-15T16:24:54.778Z,2.30
2023-01-15T16:27:51.919Z,2.16
2023-01-15T16:30:56.133Z,2.17
2023-01-15T16:33:57.899Z,2.23
2023-01-15T16:36:54.707Z,2.31
2023-01-15T16:39:51.832Z,2.18
2023-01-15T16:42:59.015Z,2.27
2023-01-15T16:45:55.669Z,2.17
2023-01-15T16:49:24.697Z,2.18
2023-01-15T16:52:51.530Z,2.32
2023-01-15T16:55:50.155Z,2.28
2023-01-15T16:58:47.268Z,2.43
2023-01-15T17:01:48.469Z,2.24
2023-01-15T17:04:46.155Z,2.23
2023-01-15T17:07:47.253Z,2.28
2023-01-15T17:10:58.251Z,2.20
2023-01-15T17:14:22.285Z,2.36
2023-01-15T17:17:21.949Z,2.22
2023-01-15T17:20:20.574Z,2.32
2023-01-15T17:23:18.941Z,2.27
2023-01-15T17:26:18.766Z,2.20
2023-01-15T17:29:15.607Z,2.21
2023-01-15T17:32:15.695Z,2.26
2023-01-15T17:35:28.890Z,2.20
2023-01-15T17:38:25.617Z,2.30
2023-01-15T17:41:22.726Z,2.31
2023-01-15T17:44:19.477Z,2.17
2023-01-15T17:47:16.282Z,2.21
2023-01-15T17:50:14.438Z,2.34
2023-01-15T17:53:11.210Z,2.39
2023-01-15T17:56:27.205Z,2.35
2023-01-15T17:59:42.590Z,2.27
2023-01-15T18:02:59.671Z,2.21
2023-01-15T18:05:56.486Z,2.34
2023-01-15T18:08:55.475Z,2.26
2023-01-15T18:11:52.333Z,2.19
2023-01-15T18:14:49.520Z,2.27
2023-01-15T18:17:46.488Z,2.22
2023-01-15T18:20:43.253Z,2.12
2023-01-15T18:23:40.702Z,2.10
2023-01-15T18:26:39.013Z,2.12
2023-01-15T18:29:40.046Z,2.07
2023-01-15T18:32:37.721Z,2.24
2023-01-15T18:35:34.803Z,2.19
2023-01-15T18:38:33.613Z,2.16
2023-01-15T18:41:36.331Z,2.20
2023-01-15T18:44:51.948Z,2.26
2023-01-15T18:47:50.805Z,2.22
2023-01-15T18:50:48.983Z,2.18
2023-01-15T18:53:48.950Z,2.20
2023-01-15T18:56:48.369Z,2.09
2023-01-15T18:59:47.380Z,2.21
2023-01-15T19:02:45.229Z,2.21
2023-01-15T19:05:42.046Z,2.12
2023-01-15T19:08:38.807Z,2.17
2023-01-15T19:11:35.735Z,2.14
2023-01-15T19:14:51.532Z,2.08
2023-01-15T19:18:06.853Z,1.99
2023-01-15T19:21:08.043Z,2.02
2023-01-15T19:24:05.205Z,1.94
2023-01-15T19:27:03.088Z,1.74
2023-01-15T19:30:00.347Z,1.88
2023-01-15T19:32:57.205Z,1.86
2023-01-15T19:35:53.970Z,1.80
2023-01-15T19:38:50.773Z,1.90
2023-01-15T19:42:06.444Z,1.71
2023-01-15T19:45:23.936Z,1.84
2023-01-15T19:48:39.550Z,1.88
2023-01-15T19:52:05.543Z,1.90
2023-01-15T19:55:03.970Z,1.97
2023-01-15T19:58:05.447Z,2.00
2023-01-15T20:01:02.354Z,1.96
2023-01-15T20:03:59.300Z,1.88
2023-01-15T20:06:58.643Z,1.92
2023-01-15T20:09:55.389Z,2.10
2023-01-15T20:13:11.194Z,1.94
2023-01-15T20:16:13.118Z,2.02
2023-01-15T20:19:09.880Z,2.01
2023-01-15T20:22:06.757Z,2.04
2023-01-15T20:25:03.961Z,2.08
2023-01-15T20:28:00.762Z,2.07
2023-01-15T20:30:57.632Z,2.09
2023-01-15T20:33:57.719Z,2.07
2023-01-15T20:36:54.488Z,2.07
2023-01-15T20:39:52.372Z,2.03
2023-01-15T20:43:07.702Z,2.01
2023-01-15T20:46:12.556Z,2.05
2023-01-15T20:49:28.908Z,2.07
2023-01-15T20:52:25.877Z,2.07
2023-01-15T20:55:24.348Z,2.13
2023-01-15T20:58:21.343Z,2.05
2023-01-15T21:01:18.220Z,2.08
2023-01-15T21:04:15.070Z,1.99
2023-01-15T21:07:11.853Z,1.98
2023-01-15T21:10:12.059Z,1.99
2023-01-15T21:13:08.918Z,2.02
2023-01-15T21:16:06.250Z,1.92
2023-01-15T21:19:04.791Z,1.92
2023-01-15T21:22:01.871Z,1.89
2023-01-15T21:24:58.961Z,1.94
2023-01-15T21:27:55.757Z,1.98
2023-01-15T21:30:52.496Z,1.87
2023-01-15T21:33:49.265Z,1.94
2023-01-15T21:36:46.120Z,1.88
2023-01-15T21:39:42.887Z,1.95
2023-01-15T21:42:57.866Z,1.93
2023-01-15T21:46:05.286Z,1.88
2023-01-15T21:49:02.070Z,1.94
2023-01-15T21:52:04.090Z,1.92
2023-01-15T21:55:00.874Z,1.84
2023-01-15T21:57:58.711Z,1.81
2023-01-15T22:00:57.136Z,1.95
2023-01-15T22:03:53.926Z,1.86
2023-01-15T22:06:51.529Z,1.86
2023-01-15T22:09:48.350Z,1.91
2023-01-15T22:12:45.193Z,1.83
2023-01-15T22:15:41.986Z,1.83
2023-01-15T22:18:40.836Z,1.80
2023-01-15T22:21:37.920Z,1.93
2023-01-15T22:24:36.071Z,1.91
2023-01-15T22:27:34.602Z,1.88
2023-01-15T22:30:31.405Z,1.85
2023-01-15T22:33:28.183Z,1.85
2023-01-15T22:36:27.004Z,1.93
2023-01-15T22:39:24.954Z,1.89
2023-01-15T22:42:24.326Z,1.76
2023-01-15T22:45:24.754Z,1.80
2023-01-15T22:48:21.510Z,1.84
2023-01-15T22:51:18.250Z,1.68
2023-01-15T22:54:15.021Z,1.71
2023-01-15T22:57:13.115Z,1.68
2023-01-15T23:00:11.449Z,1.65
2023-01-15T23:03:08.655Z,1.62
2023-01-15T23:06:09.922Z,1.67
2023-01-15T23:09:06.765Z,1.57
2023-01-15T23:12:03.610Z,1.63
2023-01-15T23:15:00.381Z,1.61
2023-01-15T23:17:57.109Z,1.61
2023-01-15T23:20:53.857Z,1.71
2023-01-15T23:23:58.423Z,1.56
2023-01-15T23:26:55.171Z,1.50
2023-01-15T23:29:51.920Z,1.51
2023-01-15T23:32:48.655Z,1.42
2023-01-15T23:35:46.163Z,1.37
2023-01-15T23:38:44.292Z,1.40
2023-01-15T23:41:59.809Z,1.37
2023-01-15T23:45:15.187Z,1.33
2023-01-15T23:48:11.958Z,1.25
2023-01-15T23:51:08.926Z,1.29
2023-01-15T23:54:05.992Z,1.21
2023-01-15T23:57:02.880Z,1.16
2023-01-15T23:59:59.650Z,1.24
